Terminal Aerodrome Forecast
Issued by NWS

Home | Current Version | Previous Version | Text Only | Print | Product List | Glossary Off
Versions: 1 2 3 4 5 6 7 8 9 10 11 12 13 14 15 16 17 18 19 20 21

554
FTUS43 KICT 281739
TAFRSL
TAF
KRSL 281739Z 2818/2918 31010KT P6SM FEW040
     FM290000 VRB05KT P6SM SKC
     FM290900 18007KT P6SM SCT120=

USA.gov is the U.S. government's official web portal to all federal, state and local government web resources and services.